Time;durP1;ratioP1;P1;durP2;ratioP2;P2;SDS_P1;SDS_P2;PMS_P1;PMS_P2;Temp;Humidity;BMP_temperature;BMP_pressure;BME280_temperature;BME280_humidity;BME280_pressure;Samples;Min_cycle;Max_cycle;Signal;HPM_P1;HPM_P2
2022/05/29 00:00:33;;;;;;;8.40;2.10;;;;;;;15.77;71.40;99776.52;1747622;82;21175;-82
2022/05/29 00:03:39;;;;;;;2.75;2.10;;;;;;;15.73;71.61;99777.49;1746753;82;21222;-83
2022/05/29 00:06:47;;;;;;;9.38;3.08;;;;;;;15.68;71.86;99775.94;1746374;82;21191;-83
2022/05/29 00:09:55;;;;;;;3.98;2.50;;;;;;;15.64;72.27;99772.47;1747814;82;21151;-83
2022/05/29 00:13:02;;;;;;;4.75;2.27;;;;;;;15.60;72.67;99778.39;1747492;82;21764;-83
2022/05/29 00:16:08;;;;;;;3.95;2.55;;;;;;;15.59;73.10;99775.33;1747899;82;21633;-83
2022/05/29 00:19:14;;;;;;;3.22;2.60;;;;;;;15.60;73.48;99769.28;1746407;82;21238;-83
2022/05/29 00:22:24;;;;;;;8.05;2.70;;;;;;;15.60;74.14;99763.23;1747767;82;21230;-83
2022/05/29 00:25:31;;;;;;;5.90;2.83;;;;;;;15.59;74.65;99768.97;1746932;82;21162;-83
2022/05/29 00:28:38;;;;;;;9.45;2.95;;;;;;;15.57;75.24;99765.06;1747397;82;21163;-83
2022/05/29 00:31:43;;;;;;;5.12;3.00;;;;;;;15.53;75.60;99767.11;1748047;82;21167;-83
2022/05/29 00:34:48;;;;;;;5.60;2.80;;;;;;;15.45;75.99;99762.70;1747430;82;21199;-83
2022/05/29 00:37:54;;;;;;;4.58;2.40;;;;;;;15.41;76.30;99764.73;1747380;82;21195;-82
2022/05/29 00:41:13;;;;;;;7.60;2.80;;;;;;;15.39;76.56;99764.97;1748064;82;21171;-82
2022/05/29 00:44:24;;;;;;;4.90;2.45;;;;;;;15.36;76.64;99766.77;1746984;82;21744;-82
2022/05/29 00:47:27;;;;;;;4.70;2.40;;;;;;;15.35;76.79;99759.58;1768325;80;21198;-82
2022/05/29 00:50:33;;;;;;;3.33;2.58;;;;;;;15.32;77.00;99765.52;1788330;80;21160;-82
2022/05/29 00:53:38;;;;;;;3.20;2.27;;;;;;;15.30;77.18;99756.64;1787981;80;21195;-82
2022/05/29 00:56:44;;;;;;;3.83;2.50;;;;;;;15.27;77.17;99743.30;1787948;80;21168;-83
2022/05/29 00:59:48;;;;;;;4.37;2.40;;;;;;;15.25;77.11;99741.31;1786898;80;21249;-83
2022/05/29 01:02:54;;;;;;;5.47;2.62;;;;;;;15.24;77.33;99730.83;1787390;80;21755;-82
2022/05/29 01:05:53;;;;;;;3.45;2.20;;;;;;;15.25;77.65;99744.06;1787176;80;21708;-83
2022/05/29 01:09:00;;;;;;;4.03;2.37;;;;;;;15.23;77.91;99731.87;1786714;80;21195;-83
2022/05/29 01:12:13;;;;;;;2.72;2.30;;;;;;;15.24;77.97;99732.71;1787984;80;21159;-83
2022/05/29 01:15:40;;;;;;;4.12;2.58;;;;;;;15.25;78.04;99728.38;1752214;80;21250;-82
2022/05/29 01:19:09;;;;;;;6.87;2.33;;;;;;;15.28;78.26;99728.45;1786677;80;21201;-83
2022/05/29 01:22:32;;;;;;;3.05;2.08;;;;;;;15.28;78.20;99725.70;1786453;80;21172;-83
2022/05/29 01:26:15;;;;;;;9.95;2.50;;;;;;;15.30;77.87;99735.45;1787674;80;21199;-82
2022/05/29 01:29:26;;;;;;;4.08;2.60;;;;;;;15.34;77.52;99752.39;1787680;80;21687;-83
2022/05/29 01:33:05;;;;;;;6.60;2.37;;;;;;;15.39;77.16;99757.23;1787555;80;21820;-82
2022/05/29 01:36:23;;;;;;;6.00;2.00;;;;;;;15.45;76.74;99752.20;1787183;80;21188;-83
2022/05/29 01:39:56;;;;;;;6.03;2.40;;;;;;;15.50;76.34;99754.61;1787985;80;21156;-83
2022/05/29 01:43:07;;;;;;;3.15;1.98;;;;;;;15.54;76.13;99743.45;1787386;80;21799;-83
2022/05/29 01:46:24;;;;;;;4.58;1.85;;;;;;;15.58;75.40;99746.08;1787361;80;21195;-83
2022/05/29 01:49:38;;;;;;;3.75;1.80;;;;;;;15.62;74.58;99752.50;1789931;80;21163;-83
2022/05/29 01:52:54;;;;;;;2.65;1.77;;;;;;;15.63;74.11;99750.08;1793162;80;21752;-77
2022/05/29 01:56:02;;;;;;;2.47;1.67;;;;;;;15.60;74.35;99745.84;1791932;80;21215;-82
2022/05/29 01:59:14;;;;;;;3.45;1.72;;;;;;;15.58;74.15;99753.50;1793464;80;21215;-83
2022/05/29 02:02:24;;;;;;;4.37;1.80;;;;;;;15.56;74.08;99760.59;1793469;80;21709;-83
2022/05/29 02:05:36;;;;;;;2.92;1.98;;;;;;;15.59;73.99;99762.92;1793763;80;21178;-83
2022/05/29 02:08:51;;;;;;;4.35;2.35;;;;;;;15.62;74.18;99760.27;1793058;80;21739;-83
2022/05/29 02:11:59;;;;;;;2.95;2.05;;;;;;;15.65;74.55;99759.84;1792179;80;21642;-83
2022/05/29 02:15:08;;;;;;;4.00;2.72;;;;;;;15.67;75.38;99756.34;1793025;80;21185;-83
2022/05/29 02:18:18;;;;;;;3.95;2.00;;;;;;;15.67;75.89;99764.61;1792099;80;21181;-82
2022/05/29 02:21:32;;;;;;;3.87;2.00;;;;;;;15.68;75.87;99763.53;1793363;80;21181;-83
2022/05/29 02:24:43;;;;;;;6.75;2.08;;;;;;;15.71;75.69;99770.50;1793615;80;21719;-83
2022/05/29 02:28:12;;;;;;;5.00;1.87;;;;;;;15.74;75.27;99773.66;1792206;80;21200;-83
2022/05/29 02:31:48;;;;;;;2.55;1.90;;;;;;;15.77;75.20;99783.41;1792359;80;21189;-83
2022/05/29 02:35:13;;;;;;;3.77;1.70;;;;;;;15.82;74.99;99786.34;1766305;80;21209;-83
2022/05/29 02:38:51;;;;;;;4.47;1.90;;;;;;;15.84;74.63;99788.33;1792699;80;21746;-83
2022/05/29 02:42:26;;;;;;;3.70;1.75;;;;;;;15.88;74.43;99786.83;1791987;80;21746;-83
2022/05/29 02:45:51;;;;;;;3.47;1.77;;;;;;;15.91;74.02;99780.87;1742987;82;21197;-83
2022/05/29 02:49:22;;;;;;;4.30;1.75;;;;;;;15.91;73.63;99785.01;1753820;80;21173;-83
2022/05/29 02:52:28;;;;;;;4.25;1.65;;;;;;;15.91;73.39;99787.77;1744219;80;21213;-83
2022/05/29 02:55:34;;;;;;;3.20;1.80;;;;;;;15.93;73.25;99784.77;1787977;80;21684;-83
2022/05/29 02:58:40;;;;;;;5.25;2.08;;;;;;;15.93;73.45;99777.34;1787836;80;21190;-83
2022/05/29 03:01:52;;;;;;;2.22;1.55;;;;;;;15.95;73.80;99787.63;1774578;81;21774;-83
2022/05/29 03:05:39;;;;;;;3.72;1.95;;;;;;;15.96;74.21;99792.07;1774552;81;21145;-83
2022/05/29 03:09:20;;;;;;;7.22;2.15;;;;;;;15.97;74.36;99796.52;1788094;80;21197;-83
2022/05/29 03:12:53;;;;;;;3.55;1.90;;;;;;;16.01;74.91;99801.90;1786580;80;21224;-83
2022/05/29 03:16:35;;;;;;;5.47;1.60;;;;;;;16.08;75.22;99803.21;1786462;80;21752;-83
2022/05/29 03:20:19;;;;;;;2.90;1.95;;;;;;;16.10;75.46;99799.17;1787887;80;21154;-83
2022/05/29 03:23:36;;;;;;;7.87;2.02;;;;;;;16.15;75.57;99808.70;1773534;81;21777;-83
2022/05/29 03:26:48;;;;;;;3.37;1.82;;;;;;;16.21;75.18;99805.86;1774226;81;21146;-83
2022/05/29 03:30:08;;;;;;;4.97;1.72;;;;;;;16.26;75.18;99803.81;1787978;80;21158;-82
2022/05/29 03:33:16;;;;;;;3.87;1.75;;;;;;;16.31;75.06;99810.34;1787991;80;21783;-82
2022/05/29 03:36:23;;;;;;;3.12;1.60;;;;;;;16.35;74.51;99814.88;1774470;81;21221;-83
2022/05/29 03:39:29;;;;;;;5.20;1.80;;;;;;;16.38;74.15;99819.11;1788197;80;21161;-83
2022/05/29 03:42:34;;;;;;;17.10;1.95;;;;;;;16.40;73.92;99828.00;1774744;81;21197;-83
2022/05/29 03:45:41;;;;;;;5.47;1.85;;;;;;;16.41;73.52;99824.16;1774318;81;21699;-83
2022/05/29 03:48:46;;;;;;;4.45;1.90;;;;;;;16.48;72.87;99840.14;1786534;80;21189;-83
2022/05/29 03:51:52;;;;;;;3.40;2.05;;;;;;;16.52;72.30;99839.46;1787085;80;21249;-83
2022/05/29 03:55:00;;;;;;;4.58;2.20;;;;;;;16.58;71.56;99842.69;1786570;80;21149;-83
2022/05/29 03:58:05;;;;;;;9.40;2.98;;;;;;;16.60;70.53;99832.25;1786499;80;21167;-83
2022/05/29 04:01:11;;;;;;;3.65;1.87;;;;;;;16.64;70.44;99831.80;1786392;80;21656;-83
2022/05/29 04:04:17;;;;;;;6.55;1.90;;;;;;;16.64;70.05;99838.70;1787900;80;21193;-83
2022/05/29 04:12:03;;;;;;;5.05;1.62;;;;;;;16.63;70.29;99842.55;1786961;80;21723;-83
2022/05/29 04:13:53;;;;;;;3.47;1.90;;;;;;;16.73;70.32;99829.09;1786683;80;21217;-83
2022/05/29 04:16:58;;;;;;;3.77;1.90;;;;;;;16.76;69.73;99830.87;1774340;81;21200;-83
2022/05/29 04:20:04;;;;;;;6.50;2.20;;;;;;;16.85;69.55;99836.94;1774312;81;21169;-83
2022/05/29 04:23:10;;;;;;;5.03;1.98;;;;;;;16.98;68.93;99831.79;1773571;81;21168;-83
2022/05/29 04:26:22;;;;;;;2.62;1.67;;;;;;;17.21;68.26;99832.48;1774345;81;21261;-83
2022/05/29 04:29:27;;;;;;;;;;;;;;;17.39;67.07;99828.32;1776933;81;21149;-83
2022/05/29 04:35:37;;;;;;;3.47;1.80;;;;;;;17.62;65.89;99838.66;1774459;81;21161;-83
2022/05/29 04:38:43;;;;;;;3.85;1.60;;;;;;;17.69;65.93;99839.42;1773221;81;21216;-84
2022/05/29 04:41:49;;;;;;;3.15;1.60;;;;;;;17.74;65.50;99845.66;1774350;81;21240;-83
2022/05/29 04:44:55;;;;;;;1.90;1.60;;;;;;;17.74;65.29;99853.96;1772917;81;21180;-83
2022/05/29 04:48:00;;;;;;;2.90;1.55;;;;;;;17.69;64.82;99850.99;1786617;79;21185;-83
2022/05/29 04:51:12;;;;;;;4.30;1.87;;;;;;;17.62;64.68;99847.79;1784691;80;21197;-83
2022/05/29 04:54:19;;;;;;;5.60;1.60;;;;;;;17.60;64.05;99850.50;1786670;80;21209;-83
2022/05/29 04:57:25;;;;;;;4.40;1.60;;;;;;;17.57;64.40;99837.97;1787648;79;21236;-77
2022/05/29 05:00:31;;;;;;;4.65;1.60;;;;;;;17.59;64.66;99841.33;1788068;80;21150;-83
2022/05/29 05:03:36;;;;;;;4.65;1.42;;;;;;;17.69;64.31;99842.70;1786904;79;21774;-83
2022/05/29 05:06:42;;;;;;;4.53;1.62;;;;;;;17.82;63.77;99842.55;1786468;80;21217;-77
2022/05/29 05:09:48;;;;;;;2.95;1.65;;;;;;;17.93;63.47;99837.61;1786883;80;21212;-83
2022/05/29 05:12:54;;;;;;;3.70;1.30;;;;;;;18.08;63.25;99838.01;1787451;79;21210;-82
2022/05/29 05:16:09;;;;;;;6.30;1.75;;;;;;;18.33;62.96;99838.35;1788107;80;21154;-83
2022/05/29 05:19:14;;;;;;;2.65;1.22;;;;;;;18.64;62.81;99841.34;1784008;79;21210;-82
2022/05/29 05:22:20;;;;;;;2.75;1.55;;;;;;;18.95;60.64;99847.06;1786128;79;21177;-82
2022/05/29 05:25:28;;;;;;;8.08;1.57;;;;;;;19.12;59.42;99845.80;1771651;80;21711;-82
2022/05/29 05:28:33;;;;;;;5.45;1.40;;;;;;;19.28;57.33;99840.02;1786515;79;21771;-83
2022/05/29 05:31:40;;;;;;;6.50;1.40;;;;;;;19.35;56.45;99839.36;1788045;80;21134;-84
2022/05/29 05:34:40;;;;;;;2.08;1.32;;;;;;;19.40;56.31;99850.00;1787882;80;21138;-84
2022/05/29 05:37:35;;;;;;;3.80;1.42;;;;;;;19.35;56.04;99860.16;1787613;79;21164;-84
2022/05/29 05:40:21;;;;;;;6.97;1.65;;;;;;;19.24;56.59;99859.06;1787871;80;21162;-83
2022/05/29 05:43:14;;;;;;;4.25;1.57;;;;;;;19.16;56.68;99870.56;1787199;79;21233;-83
2022/05/29 05:46:21;;;;;;;4.33;1.80;;;;;;;19.02;57.18;99864.97;1787981;80;21748;-83
2022/05/29 05:49:29;;;;;;;5.67;1.98;;;;;;;18.93;57.61;99871.42;1788180;80;21158;-83
2022/05/29 05:52:34;;;;;;;2.52;1.45;;;;;;;18.78;57.85;99868.30;1789581;78;21173;-84
2022/05/29 05:55:41;;;;;;;2.35;1.55;;;;;;;18.68;58.06;99872.14;1793697;80;21753;-83
2022/05/29 05:58:47;;;;;;;4.65;1.90;;;;;;;18.52;58.00;99875.09;1793654;78;21181;-83
2022/05/29 06:01:53;;;;;;;9.03;1.60;;;;;;;18.48;58.27;99884.41;1793733;78;21193;-83
2022/05/29 06:05:00;;;;;;;7.97;1.35;;;;;;;18.46;58.14;99892.67;1793692;80;21712;-83
2022/05/29 06:08:07;;;;;;;6.58;1.77;;;;;;;18.43;58.15;99896.75;1778723;79;21837;-83
2022/05/29 06:11:13;;;;;;;4.80;2.10;;;;;;;18.42;57.54;99896.99;1793676;80;21146;-83
2022/05/29 06:14:21;;;;;;;3.40;2.02;;;;;;;18.38;57.64;99891.08;1793583;80;21150;-83
2022/05/29 06:17:28;;;;;;;8.18;1.85;;;;;;;18.34;57.85;99884.33;1793362;78;21841;-83
2022/05/29 06:20:33;;;;;;;3.12;1.72;;;;;;;18.29;58.13;99869.81;1792312;80;21746;-83
2022/05/29 06:23:40;;;;;;;2.58;1.67;;;;;;;18.31;57.67;99857.14;1792698;78;21209;-83
2022/05/29 06:26:47;;;;;;;4.97;1.70;;;;;;;18.43;57.50;99859.37;1793590;80;21158;-83
2022/05/29 06:29:53;;;;;;;3.50;1.57;;;;;;;18.57;55.14;99863.59;1793497;80;21134;-83
2022/05/29 06:33:01;;;;;;;3.02;1.55;;;;;;;18.71;54.55;99862.02;1793582;78;21766;-83
2022/05/29 06:36:24;;;;;;;3.83;1.70;;;;;;;18.88;53.27;99869.92;1791946;80;21181;-84
2022/05/29 06:39:30;;;;;;;3.33;1.50;;;;;;;19.12;54.13;99868.80;1791743;79;21217;-84
2022/05/29 06:42:36;;;;;;;2.98;1.40;;;;;;;19.38;51.05;99879.05;1779347;80;21200;-84
2022/05/29 06:45:42;;;;;;;3.42;1.30;;;;;;;19.36;50.38;99865.99;1784972;80;21158;-84
2022/05/29 06:48:47;;;;;;;5.65;1.42;;;;;;;19.22;51.02;99875.12;1781645;80;21739;-84
2022/05/29 06:51:53;;;;;;;1.35;1.12;;;;;;;18.99;49.75;99880.14;1782902;80;21162;-84
2022/05/29 06:55:00;;;;;;;2.52;1.15;;;;;;;18.76;50.36;99888.45;1774413;81;21243;-84
2022/05/29 06:58:06;;;;;;;13.68;2.33;;;;;;;18.58;51.37;99893.00;1773969;81;21788;-84
2022/05/29 07:08:09;;;;;;;6.67;2.10;;;;;;;18.50;53.47;99904.42;1787497;79;21197;-83
2022/05/29 07:11:18;;;;;;;3.70;1.62;;;;;;;18.51;53.24;99912.19;1787549;80;21157;-83
2022/05/29 07:14:23;;;;;;;5.93;1.77;;;;;;;18.50;53.22;99909.95;1788162;80;21154;-83
2022/05/29 07:17:27;;;;;;;4.35;1.92;;;;;;;18.54;53.03;99915.33;1787915;79;21229;-83
2022/05/29 07:20:33;;;;;;;3.35;1.60;;;;;;;18.56;53.40;99916.47;1787881;80;21189;-82
2022/05/29 07:23:38;;;;;;;3.70;1.70;;;;;;;18.62;53.56;99917.73;1787840;79;21233;-83
2022/05/29 07:26:43;;;;;;;6.83;1.62;;;;;;;18.72;53.42;99922.71;1788564;80;21715;-84
2022/05/29 07:29:49;;;;;;;1.95;1.20;;;;;;;18.87;52.97;99922.27;1788633;80;21197;-82
2022/05/29 07:32:55;;;;;;;2.52;1.20;;;;;;;19.12;52.16;99933.95;1788641;79;21212;-82
2022/05/29 07:36:01;;;;;;;5.65;1.60;;;;;;;19.40;51.42;99932.36;1788538;80;21197;-82
2022/05/29 07:39:06;;;;;;;2.00;1.30;;;;;;;19.65;49.56;99930.70;1781388;79;22138;-82
2022/05/29 07:45:38;;;;;;;10.70;1.50;;;;;;;19.95;50.17;99934.68;1788502;80;21706;-83
2022/05/29 07:48:42;;;;;;;9.63;1.70;;;;;;;19.91;50.35;99930.70;1765971;79;21184;-83
2022/05/29 07:51:48;;;;;;;2.67;1.35;;;;;;;19.87;50.88;99926.19;1721638;83;21220;-83
2022/05/29 07:54:55;;;;;;;4.12;1.50;;;;;;;19.88;50.94;99918.70;1755346;81;21266;-83
2022/05/29 07:58:02;;;;;;;9.13;1.90;;;;;;;19.93;50.78;99927.67;1760979;81;21196;-83
2022/05/29 08:01:08;;;;;;;10.70;1.80;;;;;;;19.98;50.92;99938.33;1759468;81;21781;-83
2022/05/29 08:04:14;;;;;;;7.75;1.65;;;;;;;20.06;51.23;99948.21;1750919;81;21758;-83
2022/05/29 08:07:21;;;;;;;5.35;1.60;;;;;;;20.15;50.55;99949.50;1735186;80;21704;-83
2022/05/29 08:10:27;;;;;;;2.98;1.55;;;;;;;20.21;50.70;99951.83;1761571;81;21204;-83
2022/05/29 08:13:32;;;;;;;4.90;1.80;;;;;;;20.16;50.78;99947.02;1731332;83;21267;-77
2022/05/29 08:16:32;;;;;;;6.37;1.87;;;;;;;20.06;50.38;99947.66;1731246;83;21157;-77
2022/05/29 08:19:25;;;;;;;4.45;1.70;;;;;;;19.87;50.74;99951.72;1759093;81;21775;-76
2022/05/29 08:22:31;;;;;;;3.12;1.67;;;;;;;19.75;51.37;99949.50;1760745;81;21194;-77
2022/05/29 08:32:25;;;;;;;4.45;1.95;;;;;;;19.34;52.56;99957.76;1760120;81;21254;-77
2022/05/29 08:35:30;;;;;;;4.50;1.72;;;;;;;19.40;53.17;99950.39;1761373;81;21145;-77
2022/05/29 08:38:36;;;;;;;3.27;1.55;;;;;;;19.54;53.37;99955.98;1758462;80;21240;-77
2022/05/29 08:41:52;;;;;;;16.57;1.92;;;;;;;19.66;52.49;99954.58;1746073;81;21176;-77
2022/05/29 08:44:59;;;;;;;4.20;1.55;;;;;;;19.66;52.67;99952.65;1737665;80;21200;-77
2022/05/29 08:48:04;;;;;;;3.35;1.55;;;;;;;19.62;51.87;99954.25;1761353;81;21240;-77
2022/05/29 08:51:48;;;;;;;2.50;1.37;;;;;;;19.54;51.87;99967.08;1761289;80;21165;-77
2022/05/29 08:55:15;;;;;;;2.92;1.35;;;;;;;19.48;52.70;99962.51;1714370;83;21307;-77
2022/05/29 08:58:40;;;;;;;4.80;1.57;;;;;;;19.49;52.55;99971.13;1724572;82;21212;-77
2022/05/29 09:01:57;;;;;;;3.77;1.30;;;;;;;19.50;52.35;99978.35;1748279;80;21200;-76
2022/05/29 09:05:10;;;;;;;7.50;1.98;;;;;;;19.56;52.02;99989.85;1743865;82;21168;-77
2022/05/29 09:08:26;;;;;;;3.87;1.62;;;;;;;19.62;52.00;99979.77;1735336;82;21208;-77
2022/05/29 09:11:47;;;;;;;3.62;1.60;;;;;;;19.68;52.63;99982.11;1743157;82;21185;-77
2022/05/29 09:15:03;;;;;;;3.98;1.40;;;;;;;19.68;51.51;99993.20;1744719;81;21173;-77
2022/05/29 09:18:12;;;;;;;8.08;2.08;;;;;;;19.61;52.03;99995.55;1747244;80;21193;-77
2022/05/29 09:21:25;;;;;;;4.75;1.80;;;;;;;19.58;51.73;100000.73;1745267;80;21244;-77
2022/05/29 09:24:46;;;;;;;3.27;1.60;;;;;;;19.55;51.82;100003.97;1744856;80;21161;-78
2022/05/29 09:27:53;;;;;;;5.65;1.95;;;;;;;19.51;51.51;99996.67;1747291;80;21221;-78
2022/05/29 09:31:01;;;;;;;6.70;1.80;;;;;;;19.48;51.87;100004.11;1740217;80;21797;-77
2022/05/29 09:34:06;;;;;;;5.53;1.70;;;;;;;19.51;52.70;100018.86;1722179;82;21228;-77
2022/05/29 09:37:22;;;;;;;3.60;1.50;;;;;;;19.57;51.86;100016.53;1724494;81;21699;-77
2022/05/29 09:40:40;;;;;;;3.12;1.50;;;;;;;19.56;51.23;100024.53;1737005;82;21723;-77
2022/05/29 09:43:46;;;;;;;3.55;1.95;;;;;;;19.45;50.42;100024.00;1740934;81;21577;-77
2022/05/29 09:49:40;;;;;;;9.30;1.75;;;;;;;19.31;50.34;100045.58;1740089;81;21548;-77
2022/05/29 09:50:17;;;;;;;3.35;1.77;;;;;;;19.28;50.80;100035.50;1728877;81;22042;-77
2022/05/29 09:53:31;;;;;;;3.35;1.75;;;;;;;19.26;51.35;100041.30;1742591;82;21225;-77
2022/05/29 09:56:39;;;;;;;12.35;2.45;;;;;;;19.18;51.21;100047.19;1757953;78;21158;-77
2022/05/29 09:59:50;;;;;;;5.78;1.65;;;;;;;19.09;51.54;100038.91;1780453;80;21711;-77
2022/05/29 10:02:54;;;;;;;;;;;;;;;19.05;52.00;100030.22;1788545;80;21186;-77
2022/05/29 10:06:01;;;;;;;3.10;1.77;;;;;;;19.00;52.05;100027.33;1764749;80;20239;-77
2022/05/29 10:09:22;;;;;;;4.72;1.50;;;;;;;18.97;52.76;100024.20;1784715;79;21185;-78
2022/05/29 10:12:28;;;;;;;7.17;2.40;;;;;;;19.01;53.75;100022.11;1783225;79;22092;-77
2022/05/29 10:15:40;;;;;;;5.28;2.42;;;;;;;19.07;54.12;100011.45;1755450;82;21169;-77
2022/05/29 10:18:47;;;;;;;3.92;1.85;;;;;;;19.11;55.13;100002.12;1781098;79;21172;-77
2022/05/29 10:21:56;;;;;;;4.60;1.92;;;;;;;19.15;55.31;99997.23;1799928;78;21137;-79
2022/05/29 10:25:01;;;;;;;6.12;1.87;;;;;;;19.13;55.43;100002.70;1801284;79;21189;-77
2022/05/29 10:28:14;;;;;;;6.60;2.30;;;;;;;19.19;55.70;100010.59;1801317;78;21165;-77
2022/05/29 10:31:30;;;;;;;6.12;2.60;;;;;;;19.22;54.63;100013.74;1799695;79;21157;-77
2022/05/29 10:34:44;;;;;;;6.25;2.12;;;;;;;19.25;54.68;100029.91;1801315;79;21538;-77
2022/05/29 10:37:51;;;;;;;6.45;1.90;;;;;;;19.33;54.81;100015.66;1801315;78;21668;-77
2022/05/29 10:40:59;;;;;;;4.30;1.98;;;;;;;19.45;54.45;100022.61;1780766;79;21185;-77
2022/05/29 10:44:05;;;;;;;8.83;1.70;;;;;;;19.53;54.73;100024.19;1791583;78;21221;-77
2022/05/29 10:47:41;;;;;;;4.42;1.60;;;;;;;19.53;54.14;100037.52;1797399;79;21731;-77
2022/05/29 10:50:59;;;;;;;14.33;1.80;;;;;;;19.40;54.39;100028.05;1766017;79;21134;-77
2022/05/29 10:54:33;;;;;;;6.95;1.60;;;;;;;19.28;55.26;100035.50;1766632;79;21145;-77
2022/05/29 10:58:13;;;;;;;5.37;1.80;;;;;;;19.16;55.32;100038.27;1786318;79;21192;-77
2022/05/29 11:05:42;;;;;;;4.70;1.80;;;;;;;18.84;56.80;100031.64;1772141;80;21153;-77
2022/05/29 11:09:15;;;;;;;4.08;1.90;;;;;;;18.70;58.15;100039.86;1788745;80;21252;-77
2022/05/29 11:12:30;;;;;;;11.45;1.77;;;;;;;18.60;58.18;100036.78;1798581;78;21738;-77
2022/05/29 11:16:02;;;;;;;2.92;1.62;;;;;;;18.51;58.94;100042.34;1790942;80;21746;-77
2022/05/29 11:19:45;;;;;;;4.25;2.02;;;;;;;18.46;59.19;100047.20;1785941;80;21177;-77
2022/05/29 11:23:28;;;;;;;4.03;1.87;;;;;;;18.37;59.09;100044.45;1798211;78;21197;-77
2022/05/29 11:27:09;;;;;;;7.00;1.67;;;;;;;18.30;59.82;100048.70;1796713;79;21185;-77
2022/05/29 11:30:20;;;;;;;3.50;1.60;;;;;;;18.25;59.48;100049.08;1798299;79;21200;-77
2022/05/29 11:33:43;;;;;;;2.85;1.80;;;;;;;18.05;59.80;100029.95;1793477;78;21224;-77
2022/05/29 11:37:02;;;;;;;12.30;2.02;;;;;;;17.87;60.89;100033.58;1767272;81;21184;-83
2022/05/29 11:40:26;;;;;;;5.42;2.15;;;;;;;17.79;61.03;100044.97;1768585;80;21212;-83
2022/05/29 11:43:54;;;;;;;4.95;1.77;;;;;;;17.69;60.97;100034.92;1784374;80;21204;-83
2022/05/29 11:54:27;;;;;;;6.72;2.20;;;;;;;17.56;62.60;100038.15;1776384;80;21164;-83
2022/05/29 11:57:40;;;;;;;3.58;1.85;;;;;;;17.63;62.95;100023.70;1769648;79;22724;-83
2022/05/29 12:01:15;;;;;;;5.67;2.35;;;;;;;17.73;63.57;100023.20;1773479;79;21173;-83
2022/05/29 12:04:51;;;;;;;5.70;2.15;;;;;;;17.69;63.43;100036.30;1797921;80;21201;-83
2022/05/29 12:08:18;;;;;;;4.70;1.95;;;;;;;17.56;63.87;100030.40;1798296;78;21240;-83
2022/05/29 12:11:36;;;;;;;6.33;1.85;;;;;;;17.49;64.42;100029.06;1799336;80;21542;-83
2022/05/29 12:15:04;;;;;;;7.70;2.10;;;;;;;17.40;65.32;100026.82;1794534;80;21774;-83
2022/05/29 12:18:25;;;;;;;4.90;2.50;;;;;;;17.34;65.51;100032.73;1794133;78;21197;-83
2022/05/29 12:21:55;;;;;;;3.35;2.20;;;;;;;17.26;66.03;100034.39;1789666;80;21786;-83
2022/05/29 12:25:01;;;;;;;3.62;1.90;;;;;;;17.10;67.09;100040.80;1759864;80;21353;-83
2022/05/29 12:28:17;;;;;;;5.37;1.92;;;;;;;17.06;68.00;100040.95;1743211;81;21212;-83
2022/05/29 12:31:45;;;;;;;3.75;1.77;;;;;;;17.04;68.20;100036.19;1794843;80;21521;-83
2022/05/29 12:35:02;;;;;;;4.80;2.02;;;;;;;17.03;68.77;100040.03;1794615;80;21158;-83
2022/05/29 12:38:53;;;;;;;8.45;1.65;;;;;;;16.95;69.35;100043.06;1795496;78;21185;-83
2022/05/29 12:42:10;;;;;;;3.08;1.70;;;;;;;16.89;70.06;100050.00;1796158;78;21181;-83
2022/05/29 12:45:45;;;;;;;7.17;1.90;;;;;;;16.83;70.45;100051.75;1794706;80;21189;-83
2022/05/29 12:49:22;;;;;;;8.10;2.60;;;;;;;16.85;71.03;100064.83;1795727;78;21217;-83
2022/05/29 12:52:33;;;;;;;8.45;2.08;;;;;;;16.94;71.40;100071.77;1795841;78;21220;-83
2022/05/29 12:56:13;;;;;;;3.08;1.75;;;;;;;17.02;72.08;100065.11;1764353;80;21165;-83
2022/05/29 12:59:49;;;;;;;3.80;1.70;;;;;;;17.04;72.54;100069.89;1713948;83;21214;-83
2022/05/29 13:03:25;;;;;;;3.37;2.00;;;;;;;17.01;72.96;100072.55;1744884;82;21252;-84
2022/05/29 13:07:00;;;;;;;3.27;1.72;;;;;;;16.99;73.15;100071.94;1744200;82;21189;-77
2022/05/29 13:10:20;;;;;;;6.30;2.00;;;;;;;17.06;72.38;100082.39;1745626;82;21742;-77
2022/05/29 13:13:46;;;;;;;3.95;2.00;;;;;;;17.05;71.25;100071.58;1744652;82;21205;-77
2022/05/29 13:16:50;;;;;;;2.98;1.80;;;;;;;17.01;71.05;100074.47;1789465;80;21157;-77
2022/05/29 13:20:14;;;;;;;5.30;2.05;;;;;;;16.95;70.79;100073.45;1796364;80;21714;-77
2022/05/29 13:23:18;;;;;;;3.25;1.98;;;;;;;16.98;70.47;100070.22;1790915;78;21213;-77
2022/05/29 13:26:38;;;;;;;3.58;1.55;;;;;;;17.01;70.12;100084.14;1763451;81;21221;-77
2022/05/29 13:29:50;;;;;;;2.85;1.62;;;;;;;16.96;69.55;100084.81;1764784;80;21244;-77
2022/05/29 13:32:56;;;;;;;2.47;1.55;;;;;;;16.96;70.11;100084.81;1764847;80;21193;-76
2022/05/29 13:36:02;;;;;;;3.80;1.37;;;;;;;16.98;70.15;100085.42;1764974;81;21146;-77
2022/05/29 13:39:09;;;;;;;6.20;1.57;;;;;;;16.95;69.08;100080.36;1764914;80;21197;-77
2022/05/29 13:42:20;;;;;;;3.70;1.60;;;;;;;16.93;68.82;100087.16;1764940;80;21227;-77
2022/05/29 13:45:39;;;;;;;2.10;1.42;;;;;;;16.86;68.15;100085.84;1764511;80;21783;-77
2022/05/29 13:49:05;;;;;;;5.25;1.25;;;;;;;16.82;68.12;100079.91;1784379;80;21213;-77
2022/05/29 13:52:15;;;;;;;5.40;1.70;;;;;;;16.80;68.20;100083.45;1794725;78;21149;-77
2022/05/29 13:55:25;;;;;;;3.12;1.55;;;;;;;16.83;67.83;100072.47;1768136;80;21723;-77
2022/05/29 14:05:42;;;;;;;4.08;1.75;;;;;;;17.11;67.79;100068.75;1664385;86;21217;-77
2022/05/29 14:09:06;;;;;;;2.45;1.62;;;;;;;17.21;67.22;100067.39;1693959;83;21739;-76
2022/05/29 14:12:21;;;;;;;3.62;1.72;;;;;;;17.32;67.09;100069.44;1748984;82;21312;-77
2022/05/29 14:15:48;;;;;;;3.22;1.40;;;;;;;17.43;66.94;100075.60;1743959;82;21224;-77
2022/05/29 14:19:04;;;;;;;5.10;1.57;;;;;;;17.52;66.31;100076.16;1768904;80;21725;-77
2022/05/29 14:22:56;;;;;;;10.10;2.20;;;;;;;17.55;65.76;100082.09;1796320;78;21153;-77
2022/05/29 14:26:46;;;;;;;7.60;1.70;;;;;;;17.52;65.22;100079.77;1796438;80;21181;-77
2022/05/29 14:30:12;;;;;;;4.20;1.95;;;;;;;17.46;65.72;100088.98;1796380;80;21145;-76
2022/05/29 14:33:40;;;;;;;4.12;1.82;;;;;;;17.47;65.88;100078.77;1796204;78;21223;-77
2022/05/29 14:37:06;;;;;;;3.77;1.87;;;;;;;17.47;65.05;100074.08;1795746;80;21181;-77
2022/05/29 14:40:47;;;;;;;3.87;1.80;;;;;;;17.50;64.90;100090.73;1796320;80;21185;-77
2022/05/29 14:43:50;;;;;;;4.28;2.12;;;;;;;17.48;64.36;100086.83;1795103;78;21197;-77
2022/05/29 14:47:05;;;;;;;5.42;1.98;;;;;;;17.43;64.66;100081.67;1793375;80;21216;-77
2022/05/29 14:50:26;;;;;;;7.62;2.30;;;;;;;17.36;64.69;100104.70;1718860;82;21152;-77
2022/05/29 14:53:41;;;;;;;4.42;2.08;;;;;;;17.28;64.84;100098.06;1782641;80;21200;-77
2022/05/29 14:56:52;;;;;;;6.17;1.82;;;;;;;17.23;64.82;100101.20;1793180;80;21150;-77
2022/05/29 15:00:00;;;;;;;9.83;2.10;;;;;;;17.15;65.37;100094.56;1744834;81;21718;-77
2022/05/29 15:03:12;;;;;;;3.65;2.17;;;;;;;17.07;65.70;100096.52;1764174;80;21264;-77
2022/05/29 15:06:12;;;;;;;10.18;2.10;;;;;;;17.03;66.07;100098.06;1764923;81;21165;-76
2022/05/29 15:12:46;;;;;;;7.83;2.17;;;;;;;16.96;66.74;100103.30;1764984;80;21738;-76
2022/05/29 15:15:57;;;;;;;4.72;2.30;;;;;;;16.94;67.25;100106.30;1774110;80;21137;-77
2022/05/29 15:19:02;;;;;;;4.12;2.30;;;;;;;16.86;67.80;100103.80;1781079;79;21232;-77
2022/05/29 15:25:30;;;;;;;4.87;2.42;;;;;;;16.80;67.96;100107.45;1782349;80;21156;-78
2022/05/29 15:28:38;;;;;;;3.58;2.35;;;;;;;16.78;68.16;100109.58;1781712;79;21192;-77
2022/05/29 15:31:43;;;;;;;3.70;2.60;;;;;;;16.72;68.15;100107.17;1794715;80;21170;-77
2022/05/29 15:35:08;;;;;;;7.78;2.45;;;;;;;16.67;68.44;100101.44;1782161;80;21714;-76
2022/05/29 15:38:26;;;;;;;6.80;2.75;;;;;;;16.67;68.63;100100.05;1795366;78;21268;-77
2022/05/29 15:42:06;;;;;;;8.80;3.15;;;;;;;16.64;68.60;100102.41;1782688;80;21156;-77
2022/05/29 15:45:37;;;;;;;6.42;3.15;;;;;;;16.60;68.86;100100.08;1782476;80;21198;-76
2022/05/29 15:49:13;;;;;;;6.70;3.22;;;;;;;16.56;69.25;100097.47;1794230;78;21169;-77
2022/05/29 15:52:44;;;;;;;4.78;2.52;;;;;;;16.58;69.19;100110.51;1782569;79;21193;-76
2022/05/29 15:55:57;;;;;;;8.08;2.77;;;;;;;16.57;69.35;100106.06;1795594;80;21205;-76